La rose des vents
Donnes mto: Semaine 24/11/08 - 30/11/08 (S 48)
Date Horaire Temp. E. Hum. E. P.atmo. Pluie Vent 1mn Direction Ensoleilleme Ev.Tr. Solaire P. de rose Temp au vent Rafales
24/11/2008 00:00 4,2 C 67 % 1000,3 hPa 0,0 l/m 12,3 km/h (3 Bft) O 0,00 h 0,025 mm 0 W/m -1,4 C 1,3 C 18,0 km/h (3 Bft)
24/11/2008 01:00 2,9 C 80 % 998,0 hPa 0,6 l/m 12,5 km/h (3 Bft) NO 0,00 h 0,051 mm 0 W/m -0,2 C -0,3 C 17,6 km/h (3 Bft)
24/11/2008 02:00 3,1 C 88 % 995,6 hPa 4,4 l/m 5,4 km/h (1 Bft) NO 0,00 h 0,025 mm 0 W/m 1,3 C 1,9 C 7,9 km/h (2 Bft)
24/11/2008 03:00 3,7 C 90 % 993,6 hPa 3,2 l/m 4,5 km/h (1 Bft) S 0,00 h 0,025 mm 0 W/m 2,2 C 2,7 C 5,9 km/h (2 Bft)
24/11/2008 04:00 3,9 C 92 % 992,6 hPa 0,0 l/m 3,6 km/h (1 Bft) S 0,00 h 0,025 mm 0 W/m 2,6 C 3,4 C 5,0 km/h (1 Bft)
24/11/2008 05:00 3,7 C 92 % 991,9 hPa 0,0 l/m 3,5 km/h (1 Bft) O-NO 0,00 h 0,000 mm 0 W/m 2,6 C 3,2 C 5,0 km/h (1 Bft)
24/11/2008 06:00 3,5 C 93 % 991,4 hPa 0,0 l/m 7,4 km/h (2 Bft) O-SO 0,00 h 0,000 mm 0 W/m 2,5 C 1,9 C 10,8 km/h (2 Bft)
24/11/2008 07:00 4,2 C 93 % 990,9 hPa 0,0 l/m 17,6 km/h (3 Bft) O-SO 0,02 h 0,000 mm 9 W/m 3,2 C 0,4 C 22,4 km/h (4 Bft)
24/11/2008 08:00 4,1 C 92 % 991,0 hPa 0,0 l/m 8,1 km/h (2 Bft) SO 0,07 h 0,025 mm 22 W/m 3,0 C 2,6 C 11,6 km/h (2 Bft)
24/11/2008 09:00 3,8 C 92 % 991,2 hPa 0,0 l/m 5,0 km/h (1 Bft) NO 0,00 h 0,025 mm 37 W/m 2,7 C 2,8 C 7,5 km/h (2 Bft)
24/11/2008 10:00 5,5 C 90 % 991,5 hPa 0,0 l/m 3,9 km/h (1 Bft) O-SO 0,68 h 0,025 mm 270 W/m 4,0 C 4,9 C 5,6 km/h (1 Bft)
24/11/2008 11:00 7,4 C 82 % 991,5 hPa 0,0 l/m 1,9 km/h (1 Bft) N-NE 0,07 h 0,127 mm 172 W/m 4,5 C 7,4 C 3,4 km/h (1 Bft)
24/11/2008 12:00 8,5 C 82 % 992,0 hPa 0,0 l/m 4,2 km/h (1 Bft) N-NE 0,05 h 0,076 mm 171 W/m 5,6 C 8,1 C 7,7 km/h (2 Bft)
24/11/2008 13:00 8,7 C 84 % 991,8 hPa 0,0 l/m 9,4 km/h (2 Bft) N-NE 0,08 h 0,076 mm 157 W/m 6,1 C 7,2 C 15,3 km/h (3 Bft)
24/11/2008 14:00 8,9 C 83 % 991,8 hPa 0,0 l/m 9,2 km/h (2 Bft) N-NE 0,10 h 0,102 mm 157 W/m 6,1 C 7,6 C 14,8 km/h (3 Bft)
24/11/2008 15:00 9,0 C 80 % 991,7 hPa 0,0 l/m 8,5 km/h (2 Bft) N-NE 0,75 h 0,102 mm 158 W/m 5,8 C 7,8 C 14,3 km/h (3 Bft)
24/11/2008 16:00 8,1 C 78 % 992,1 hPa 0,0 l/m 5,7 km/h (1 Bft) NE 0,07 h 0,102 mm 29 W/m 4,4 C 7,4 C 8,8 km/h (2 Bft)
24/11/2008 17:00 6,5 C 81 % 992,6 hPa 0,0 l/m 4,0 km/h (1 Bft) N-NE 0,00 h 0,025 mm 0 W/m 3,4 C 6,2 C 6,2 km/h (2 Bft)
24/11/2008 18:00 6,2 C 84 % 993,1 hPa 0,2 l/m 3,8 km/h (1 Bft) N 0,00 h 0,000 mm 0 W/m 3,6 C 5,9 C 6,9 km/h (2 Bft)
24/11/2008 19:00 6,5 C 86 % 993,3 hPa 5,6 l/m 3,4 km/h (1 Bft) E-NE 0,00 h 0,025 mm 0 W/m 4,4 C 6,1 C 5,4 km/h (1 Bft)
24/11/2008 20:00 6,2 C 88 % 993,7 hPa 0,2 l/m 2,1 km/h (1 Bft) N 0,00 h 0,025 mm 0 W/m 4,4 C 6,1 C 4,2 km/h (1 Bft)
24/11/2008 21:00 5,8 C 89 % 993,8 hPa 0,6 l/m 2,6 km/h (1 Bft) E 0,00 h 0,025 mm 0 W/m 4,2 C 5,5 C 3,8 km/h (1 Bft)
24/11/2008 22:00 5,5 C 91 % 994,4 hPa 1,2 l/m 11,1 km/h (2 Bft) E-NE 0,00 h 0,000 mm 0 W/m 4,1 C 3,3 C 14,5 km/h (3 Bft)
24/11/2008 23:00 5,0 C 92 % 994,7 hPa 0,2 l/m 5,6 km/h (1 Bft) N 0,00 h 0,025 mm 0 W/m 3,8 C 4,1 C 9,0 km/h (2 Bft)
25/11/2008 00:00 4,4 C 93 % 995,0 hPa 0,0 l/m 6,5 km/h (2 Bft) E-NE 0,00 h 0,000 mm 0 W/m 3,3 C 2,9 C 9,0 km/h (2 Bft)
25/11/2008 01:00 3,6 C 93 % 995,1 hPa 0,0 l/m 1,2 km/h (1 Bft) NE 0,00 h 0,000 mm 0 W/m 2,6 C 3,5 C 1,9 km/h (1 Bft)
25/11/2008 02:00 3,1 C 93 % 995,4 hPa 0,0 l/m 3,4 km/h (1 Bft) O-NO 0,00 h 0,000 mm 0 W/m 2,1 C 2,4 C 4,7 km/h (1 Bft)
25/11/2008 03:00 3,4 C 93 % 995,8 hPa 0,0 l/m 10,0 km/h (2 Bft) O 0,00 h 0,000 mm 0 W/m 2,4 C 0,8 C 13,4 km/h (3 Bft)
25/11/2008 04:00 3,2 C 93 % 996,2 hPa 0,0 l/m 10,7 km/h (2 Bft) O-NO 0,00 h 0,025 mm 0 W/m 2,1 C 0,3 C 14,4 km/h (3 Bft)
25/11/2008 05:00 3,1 C 92 % 996,7 hPa 0,0 l/m 11,4 km/h (2 Bft) O-NO 0,00 h 0,025 mm 0 W/m 2,0 C 0,1 C 15,6 km/h (3 Bft)
25/11/2008 06:00 2,9 C 90 % 997,1 hPa 0,0 l/m 9,1 km/h (2 Bft) O-NO 0,00 h 0,025 mm 0 W/m 1,5 C 0,5 C 13,3 km/h (3 Bft)
25/11/2008 07:00 2,8 C 89 % 997,9 hPa 0,0 l/m 9,6 km/h (2 Bft) O-NO 0,17 h 0,025 mm 15 W/m 1,1 C 0,2 C 13,9 km/h (3 Bft)
25/11/2008 08:00 4,0 C 84 % 998,7 hPa 0,0 l/m 4,8 km/h (1 Bft) N-NO 0,67 h 0,025 mm 93 W/m 1,6 C 3,1 C 7,1 km/h (2 Bft)
25/11/2008 09:00 7,1 C 72 % 999,8 hPa 0,0 l/m 0,9 km/h (0 Bft) N 1,00 h 0,051 mm 271 W/m 2,3 C 7,1 C 2,1 km/h (1 Bft)
25/11/2008 10:00 8,7 C 70 % 1000,7 hPa 0,0 l/m 0,7 km/h (0 Bft) NE 1,00 h 0,127 mm 341 W/m 3,6 C 8,7 C 1,8 km/h (1 Bft)
25/11/2008 11:00 9,8 C 62 % 1001,4 hPa 0,0 l/m 1,0 km/h (0 Bft) N 1,00 h 0,152 mm 405 W/m 2,9 C 9,8 C 2,5 km/h (1 Bft)
25/11/2008 12:00 10,8 C 61 % 1001,8 hPa 0,0 l/m 3,2 km/h (1 Bft) SE 0,77 h 0,203 mm 329 W/m 3,5 C 10,8 C 5,1 km/h (1 Bft)
25/11/2008 13:00 10,1 C 62 % 1002,2 hPa 0,0 l/m 2,8 km/h (1 Bft) S-SE 0,17 h 0,178 mm 185 W/m 3,2 C 10,1 C 4,3 km/h (1 Bft)
25/11/2008 14:00 9,7 C 68 % 1002,6 hPa 0,0 l/m 2,9 km/h (1 Bft) S-SE 0,02 h 0,102 mm 144 W/m 4,1 C 9,6 C 4,4 km/h (1 Bft)
25/11/2008 15:00 9,9 C 72 % 1003,1 hPa 0,0 l/m 6,8 km/h (2 Bft) SO 0,70 h 0,076 mm 153 W/m 5,1 C 9,5 C 9,0 km/h (2 Bft)
25/11/2008 16:00 9,3 C 72 % 1003,8 hPa 0,0 l/m 7,6 km/h (2 Bft) SO 0,68 h 0,102 mm 48 W/m 4,5 C 8,3 C 9,7 km/h (2 Bft)
25/11/2008 17:00 7,5 C 78 % 1004,9 hPa 0,0 l/m 8,6 km/h (2 Bft) O-SO 0,00 h 0,051 mm 5 W/m 3,8 C 6,0 C 11,8 km/h (2 Bft)
25/11/2008 18:00 6,7 C 80 % 1006,1 hPa 0,0 l/m 8,2 km/h (2 Bft) O 0,00 h 0,025 mm 0 W/m 3,5 C 5,1 C 11,4 km/h (2 Bft)
25/11/2008 19:00 5,3 C 82 % 1007,1 hPa 0,0 l/m 3,6 km/h (1 Bft) N-NO 0,00 h 0,025 mm 0 W/m 2,5 C 5,0 C 5,2 km/h (1 Bft)
25/11/2008 20:00 5,3 C 83 % 1008,2 hPa 0,0 l/m 3,8 km/h (1 Bft) N-NO 0,00 h 0,025 mm 0 W/m 2,6 C 4,9 C 5,4 km/h (1 Bft)
25/11/2008 21:00 5,2 C 79 % 1009,2 hPa 0,0 l/m 4,5 km/h (1 Bft) SO 0,00 h 0,025 mm 0 W/m 1,9 C 4,6 C 6,2 km/h (2 Bft)
25/11/2008 22:00 5,4 C 75 % 1010,0 hPa 0,0 l/m 8,2 km/h (2 Bft) O-NO 0,00 h 0,025 mm 0 W/m 1,4 C 3,7 C 10,5 km/h (2 Bft)
25/11/2008 23:00 5,5 C 66 % 1010,5 hPa 0,0 l/m 12,4 km/h (3 Bft) O-NO 0,00 h 0,025 mm 0 W/m -0,3 C 2,8 C 16,6 km/h (3 Bft)
26/11/2008 00:00 5,1 C 63 % 1011,0 hPa 0,0 l/m 10,8 km/h (2 Bft) O-NO 0,00 h 0,051 mm 0 W/m -1,5 C 2,6 C 15,4 km/h (3 Bft)
26/11/2008 01:00 4,6 C 62 % 1011,4 hPa 0,0 l/m 8,3 km/h (2 Bft) O-NO 0,00 h 0,051 mm 0 W/m -2,0 C 2,8 C 11,7 km/h (2 Bft)
26/11/2008 02:00 4,4 C 64 % 1012,2 hPa 0,0 l/m 5,3 km/h (1 Bft) NO 0,00 h 0,051 mm 0 W/m -1,8 C 3,3 C 7,0 km/h (2 Bft)
26/11/2008 03:00 4,1 C 63 % 1012,6 hPa 0,0 l/m 4,8 km/h (1 Bft) O-NO 0,00 h 0,025 mm 0 W/m -2,2 C 3,2 C 6,8 km/h (2 Bft)
26/11/2008 04:00 4,3 C 61 % 1012,9 hPa 0,0 l/m 5,8 km/h (1 Bft) O-NO 0,00 h 0,025 mm 0 W/m -2,6 C 3,1 C 7,3 km/h (2 Bft)
26/11/2008 05:00 3,9 C 60 % 1013,2 hPa 0,0 l/m 4,2 km/h (1 Bft) O-NO 0,00 h 0,051 mm 0 W/m -3,1 C 3,3 C 6,4 km/h (2 Bft)
26/11/2008 06:00 3,8 C 61 % 1013,5 hPa 0,0 l/m 4,6 km/h (1 Bft) O-NO 0,00 h 0,025 mm 0 W/m -3,1 C 3,0 C 6,8 km/h (2 Bft)
26/11/2008 07:00 3,8 C 59 % 1014,5 hPa 0,0 l/m 5,3 km/h (1 Bft) O-NO 0,00 h 0,025 mm 8 W/m -3,4 C 2,8 C 6,8 km/h (2 Bft)
26/11/2008 08:00 5,0 C 56 % 1015,6 hPa 0,0 l/m 4,0 km/h (1 Bft) O-NO 0,85 h 0,025 mm 88 W/m -3,1 C 4,6 C 5,6 km/h (1 Bft)
26/11/2008 09:00 7,9 C 50 % 1016,5 hPa 0,0 l/m 2,3 km/h (1 Bft) O-NO 1,00 h 0,051 mm 220 W/m -1,9 C 7,8 C 3,6 km/h (1 Bft)
26/11/2008 10:00 9,8 C 54 % 1017,2 hPa 0,0 l/m 0,9 km/h (0 Bft) E-NE 1,00 h 0,102 mm 332 W/m 0,9 C 9,8 C 2,1 km/h (1 Bft)
26/11/2008 11:00 11,2 C 48 % 1017,6 hPa 0,0 l/m 2,1 km/h (1 Bft) E-NE 1,00 h 0,152 mm 401 W/m 0,4 C 11,2 C 3,7 km/h (1 Bft)
26/11/2008 12:00 12,4 C 42 % 1017,8 hPa 0,0 l/m 3,8 km/h (1 Bft) E 1,00 h 0,203 mm 413 W/m -0,2 C 12,4 C 6,2 km/h (2 Bft)
26/11/2008 13:00 12,3 C 46 % 1017,9 hPa 0,0 l/m 6,4 km/h (2 Bft) S-SE 1,00 h 0,229 mm 377 W/m 1,0 C 12,3 C 9,2 km/h (2 Bft)
26/11/2008 14:00 12,1 C 48 % 1018,0 hPa 0,0 l/m 5,1 km/h (1 Bft) S-SE 1,00 h 0,229 mm 290 W/m 1,4 C 12,1 C 7,7 km/h (2 Bft)
26/11/2008 15:00 11,7 C 49 % 1018,1 hPa 0,0 l/m 4,9 km/h (1 Bft) S 1,00 h 0,178 mm 165 W/m 1,3 C 11,7 C 6,7 km/h (2 Bft)
26/11/2008 16:00 10,5 C 53 % 1018,6 hPa 0,0 l/m 5,1 km/h (1 Bft) S 0,50 h 0,127 mm 38 W/m 1,5 C 10,3 C 6,5 km/h (2 Bft)
26/11/2008 17:00 8,5 C 62 % 1019,3 hPa 0,0 l/m 11,9 km/h (2 Bft) O-NO 0,00 h 0,051 mm 5 W/m 1,6 C 6,6 C 15,6 km/h (3 Bft)
26/11/2008 18:00 7,5 C 65 % 1019,8 hPa 0,0 l/m 10,1 km/h (2 Bft) O-NO 0,00 h 0,051 mm 0 W/m 1,3 C 5,7 C 13,8 km/h (3 Bft)
26/11/2008 19:00 6,6 C 67 % 1020,5 hPa 0,0 l/m 4,9 km/h (1 Bft) NO 0,00 h 0,051 mm 0 W/m 0,9 C 5,9 C 7,3 km/h (2 Bft)
26/11/2008 20:00 6,6 C 64 % 1021,0 hPa 0,0 l/m 4,6 km/h (1 Bft) NO 0,00 h 0,025 mm 0 W/m 0,3 C 6,0 C 6,7 km/h (2 Bft)
26/11/2008 21:00 5,7 C 64 % 1021,2 hPa 0,0 l/m 4,7 km/h (1 Bft) O 0,00 h 0,025 mm 0 W/m -0,5 C 5,0 C 6,7 km/h (2 Bft)
26/11/2008 22:00 5,2 C 65 % 1021,3 hPa 0,0 l/m 6,7 km/h (2 Bft) O-NO 0,00 h 0,025 mm 0 W/m -0,8 C 3,8 C 10,1 km/h (2 Bft)
26/11/2008 23:00 4,3 C 66 % 1021,7 hPa 0,0 l/m 5,0 km/h (1 Bft) N-NO 0,00 h 0,051 mm 0 W/m -1,6 C 3,3 C 7,8 km/h (2 Bft)
27/11/2008 00:00 3,9 C 67 % 1021,8 hPa 0,0 l/m 5,8 km/h (2 Bft) N-NO 0,00 h 0,025 mm 0 W/m -1,6 C 2,5 C 8,4 km/h (2 Bft)
27/11/2008 01:00 4,1 C 63 % 1021,8 hPa 0,0 l/m 5,1 km/h (1 Bft) N-NO 0,00 h 0,025 mm 0 W/m -2,4 C 3,0 C 7,7 km/h (2 Bft)
27/11/2008 02:00 4,3 C 58 % 1021,8 hPa 0,0 l/m 5,8 km/h (2 Bft) NO 0,00 h 0,025 mm 0 W/m -3,1 C 3,0 C 8,5 km/h (2 Bft)
27/11/2008 03:00 4,3 C 55 % 1021,9 hPa 0,0 l/m 4,4 km/h (1 Bft) O-NO 0,00 h 0,051 mm 0 W/m -3,9 C 3,6 C 6,8 km/h (2 Bft)
27/11/2008 04:00 4,1 C 56 % 1021,7 hPa 0,0 l/m 5,2 km/h (1 Bft) NO 0,00 h 0,051 mm 0 W/m -3,9 C 3,0 C 7,8 km/h (2 Bft)
27/11/2008 05:00 3,9 C 56 % 1021,4 hPa 0,0 l/m 6,3 km/h (2 Bft) O-NO 0,00 h 0,051 mm 0 W/m -4,1 C 2,4 C 9,8 km/h (2 Bft)
27/11/2008 06:00 4,1 C 56 % 1021,5 hPa 0,0 l/m 7,3 km/h (2 Bft) NO 0,00 h 0,051 mm 0 W/m -4,0 C 2,3 C 10,8 km/h (2 Bft)
27/11/2008 07:00 3,8 C 56 % 1021,5 hPa 0,0 l/m 5,2 km/h (1 Bft) NO 0,13 h 0,051 mm 12 W/m -4,2 C 2,6 C 7,3 km/h (2 Bft)
27/11/2008 08:00 5,3 C 48 % 1021,6 hPa 0,0 l/m 4,8 km/h (1 Bft) NO 1,00 h 0,025 mm 85 W/m -4,8 C 4,5 C 7,4 km/h (2 Bft)
27/11/2008 09:00 7,3 C 46 % 1021,9 hPa 0,0 l/m 1,0 km/h (0 Bft) NO 1,00 h 0,051 mm 214 W/m -3,5 C 7,3 C 2,3 km/h (1 Bft)
27/11/2008 10:00 8,9 C 45 % 1021,9 hPa 0,0 l/m 2,3 km/h (1 Bft) N 1,00 h 0,102 mm 321 W/m -2,5 C 8,8 C 4,3 km/h (1 Bft)
27/11/2008 11:00 10,3 C 41 % 1021,7 hPa 0,0 l/m 8,5 km/h (2 Bft) NE 1,00 h 0,152 mm 389 W/m -2,3 C 10,0 C 12,8 km/h (3 Bft)
27/11/2008 12:00 11,0 C 44 % 1020,8 hPa 0,0 l/m 9,4 km/h (2 Bft) E-NE 0,85 h 0,229 mm 369 W/m -0,8 C 11,0 C 14,2 km/h (3 Bft)
27/11/2008 13:00 11,2 C 50 % 1020,0 hPa 0,0 l/m 14,4 km/h (3 Bft) E-NE 0,48 h 0,229 mm 264 W/m 1,1 C 11,2 C 20,0 km/h (4 Bft)
27/11/2008 14:00 11,2 C 56 % 1019,2 hPa 0,0 l/m 18,4 km/h (3 Bft) E-NE 0,55 h 0,203 mm 221 W/m 2,6 C 11,2 C 24,6 km/h (4 Bft)
27/11/2008 15:00 10,9 C 57 % 1018,4 hPa 0,0 l/m 15,1 km/h (3 Bft) E-NE 0,62 h 0,203 mm 150 W/m 2,7 C 10,7 C 22,1 km/h (4 Bft)
27/11/2008 16:00 9,6 C 60 % 1017,5 hPa 0,0 l/m 8,6 km/h (2 Bft) NE 0,70 h 0,152 mm 43 W/m 2,1 C 8,4 C 12,7 km/h (3 Bft)
27/11/2008 17:00 7,5 C 62 % 1016,9 hPa 0,0 l/m 4,3 km/h (1 Bft) N 0,00 h 0,051 mm 0 W/m 0,8 C 7,1 C 6,9 km/h (2 Bft)
27/11/2008 18:00 5,8 C 65 % 1016,6 hPa 0,0 l/m 3,4 km/h (1 Bft) N-NE 0,00 h 0,025 mm 0 W/m -0,3 C 5,4 C 5,7 km/h (1 Bft)
27/11/2008 19:00 5,5 C 65 % 1016,1 hPa 0,0 l/m 2,4 km/h (1 Bft) N 0,00 h 0,025 mm 0 W/m -0,6 C 5,3 C 4,0 km/h (1 Bft)
27/11/2008 20:00 6,1 C 60 % 1015,1 hPa 0,0 l/m 5,3 km/h (1 Bft) N-NE 0,00 h 0,025 mm 0 W/m -0,9 C 5,3 C 8,0 km/h (2 Bft)
27/11/2008 21:00 7,2 C 54 % 1013,9 hPa 0,0 l/m 6,0 km/h (2 Bft) N-NE 0,00 h 0,051 mm 0 W/m -1,4 C 6,3 C 9,2 km/h (2 Bft)
27/11/2008 22:00 8,0 C 48 % 1012,9 hPa 0,0 l/m 7,6 km/h (2 Bft) N-NE 0,00 h 0,051 mm 0 W/m -2,4 C 6,9 C 11,9 km/h (2 Bft)
27/11/2008 23:00 8,5 C 59 % 1012,3 hPa 0,4 l/m 15,8 km/h (3 Bft) NE 0,00 h 0,076 mm 0 W/m 1,0 C 6,1 C 23,1 km/h (4 Bft)
28/11/2008 00:00 6,1 C 78 % 1010,8 hPa 1,4 l/m 7,9 km/h (2 Bft) N 0,00 h 0,076 mm 0 W/m 2,5 C 4,6 C 12,6 km/h (3 Bft)
28/11/2008 01:00 5,6 C 86 % 1008,2 hPa 3,6 l/m 10,2 km/h (2 Bft) N-NE 0,00 h 0,025 mm 0 W/m 3,4 C 3,3 C 17,1 km/h (3 Bft)
28/11/2008 02:00 5,4 C 90 % 1006,2 hPa 2,6 l/m 10,9 km/h (2 Bft) NE 0,00 h 0,025 mm 0 W/m 3,9 C 3,0 C 16,2 km/h (3 Bft)
28/11/2008 03:00 6,7 C 92 % 1004,1 hPa 2,8 l/m 17,5 km/h (3 Bft) N-NE 0,00 h 0,025 mm 0 W/m 5,5 C 3,6 C 27,5 km/h (4 Bft)
28/11/2008 04:00 7,1 C 93 % 1001,8 hPa 1,8 l/m 18,3 km/h (3 Bft) N-NE 0,00 h 0,025 mm 0 W/m 6,0 C 3,9 C 28,9 km/h (5 Bft)
28/11/2008 05:00 7,6 C 92 % 1000,6 hPa 1,8 l/m 17,4 km/h (3 Bft) N-NE 0,00 h 0,025 mm 0 W/m 6,4 C 4,7 C 27,6 km/h (4 Bft)
28/11/2008 06:00 7,8 C 91 % 999,8 hPa 2,0 l/m 13,2 km/h (3 Bft) N-NE 0,00 h 0,025 mm 0 W/m 6,4 C 5,5 C 21,6 km/h (4 Bft)
28/11/2008 07:00 7,7 C 91 % 998,9 hPa 0,8 l/m 14,3 km/h (3 Bft) N-NE 0,00 h 0,025 mm 0 W/m 6,3 C 5,2 C 22,8 km/h (4 Bft)
28/11/2008 08:00 7,7 C 91 % 998,6 hPa 0,0 l/m 9,0 km/h (2 Bft) N-NE 0,00 h 0,025 mm 12 W/m 6,3 C 6,1 C 14,9 km/h (3 Bft)
28/11/2008 09:00 7,4 C 89 % 997,6 hPa 0,0 l/m 12,1 km/h (2 Bft) NE 0,00 h 0,025 mm 57 W/m 5,8 C 5,2 C 17,7 km/h (3 Bft)
28/11/2008 10:00 7,5 C 86 % 996,9 hPa 0,0 l/m 10,2 km/h (2 Bft) NE 0,00 h 0,051 mm 82 W/m 5,2 C 5,6 C 15,3 km/h (3 Bft)
28/11/2008 11:00 8,0 C 78 % 996,3 hPa 0,0 l/m 9,1 km/h (2 Bft) NE 0,00 h 0,051 mm 35 W/m 4,4 C 6,4 C 13,4 km/h (3 Bft)
28/11/2008 12:00 8,9 C 71 % 995,5 hPa 0,0 l/m 10,6 km/h (2 Bft) NE 0,00 h 0,051 mm 125 W/m 4,0 C 7,3 C 17,8 km/h (3 Bft)
28/11/2008 13:00 9,9 C 62 % 995,0 hPa 0,2 l/m 13,1 km/h (3 Bft) N-NE 0,00 h 0,102 mm 83 W/m 2,9 C 8,3 C 21,9 km/h (4 Bft)
28/11/2008 14:00 9,5 C 63 % 994,3 hPa 0,0 l/m 11,8 km/h (2 Bft) NE 0,00 h 0,102 mm 40 W/m 2,8 C 7,8 C 18,4 km/h (3 Bft)
28/11/2008 15:00 8,9 C 68 % 994,0 hPa 0,0 l/m 8,6 km/h (2 Bft) NE 0,00 h 0,076 mm 28 W/m 3,3 C 7,7 C 14,2 km/h (3 Bft)
28/11/2008 16:00 8,3 C 72 % 994,1 hPa 0,0 l/m 4,0 km/h (1 Bft) E-NE 0,00 h 0,051 mm 6 W/m 3,5 C 7,9 C 6,0 km/h (2 Bft)
28/11/2008 17:00 7,9 C 76 % 994,3 hPa 0,2 l/m 2,6 km/h (1 Bft) O 0,00 h 0,025 mm 0 W/m 4,0 C 7,8 C 3,9 km/h (1 Bft)
28/11/2008 18:00 7,5 C 84 % 994,6 hPa 0,4 l/m 3,8 km/h (1 Bft) S-SO 0,00 h 0,000 mm 0 W/m 5,0 C 7,1 C 5,0 km/h (1 Bft)
28/11/2008 19:00 7,0 C 88 % 995,1 hPa 0,8 l/m 4,4 km/h (1 Bft) N-NO 0,00 h 0,025 mm 0 W/m 5,2 C 6,5 C 6,1 km/h (2 Bft)
28/11/2008 20:00 6,8 C 90 % 995,2 hPa 0,6 l/m 4,1 km/h (1 Bft) NO 0,00 h 0,025 mm 0 W/m 5,2 C 6,3 C 5,5 km/h (1 Bft)
28/11/2008 21:00 6,5 C 91 % 995,1 hPa 0,0 l/m 1,1 km/h (1 Bft) NO 0,00 h 0,025 mm 0 W/m 5,1 C 6,4 C 1,9 km/h (1 Bft)
28/11/2008 22:00 6,3 C 92 % 995,1 hPa 0,0 l/m 3,6 km/h (1 Bft) SO 0,00 h 0,000 mm 0 W/m 5,0 C 5,7 C 4,8 km/h (1 Bft)
28/11/2008 23:00 6,2 C 92 % 995,3 hPa 0,0 l/m 1,9 km/h (1 Bft) SO 0,00 h 0,000 mm 0 W/m 5,1 C 6,0 C 2,6 km/h (1 Bft)
29/11/2008 00:00 6,2 C 93 % 995,5 hPa 0,0 l/m 4,4 km/h (1 Bft) N-NO 0,00 h 0,000 mm 0 W/m 5,1 C 5,6 C 6,3 km/h (2 Bft)
29/11/2008 01:00 5,8 C 93 % 995,5 hPa 0,0 l/m 5,6 km/h (1 Bft) O 0,00 h 0,000 mm 0 W/m 4,7 C 4,8 C 7,4 km/h (2 Bft)
29/11/2008 02:00 5,5 C 93 % 995,6 hPa 0,0 l/m 7,9 km/h (2 Bft) O-NO 0,00 h 0,000 mm 0 W/m 4,5 C 3,8 C 10,6 km/h (2 Bft)
29/11/2008 03:00 4,8 C 93 % 995,6 hPa 0,0 l/m 3,0 km/h (1 Bft) N-NO 0,00 h 0,025 mm 0 W/m 3,8 C 4,5 C 4,4 km/h (1 Bft)
29/11/2008 04:00 4,3 C 94 % 995,3 hPa 0,0 l/m 3,1 km/h (1 Bft) O-NO 0,00 h 0,000 mm 0 W/m 3,3 C 4,0 C 4,2 km/h (1 Bft)
29/11/2008 05:00 4,0 C 94 % 995,7 hPa 0,2 l/m 4,9 km/h (1 Bft) O-SO 0,00 h 0,000 mm 0 W/m 3,0 C 3,0 C 6,4 km/h (2 Bft)
29/11/2008 06:00 3,4 C 94 % 996,2 hPa 0,0 l/m 2,5 km/h (1 Bft) N-NO 0,00 h 0,000 mm 0 W/m 2,5 C 3,1 C 3,5 km/h (1 Bft)
29/11/2008 07:00 3,5 C 94 % 997,0 hPa 0,0 l/m 5,8 km/h (1 Bft) O-NO 0,10 h 0,000 mm 16 W/m 2,6 C 2,1 C 7,5 km/h (2 Bft)
29/11/2008 08:00 4,1 C 94 % 997,9 hPa 0,0 l/m 6,2 km/h (2 Bft) O-NO 0,98 h 0,000 mm 104 W/m 3,2 C 2,7 C 8,6 km/h (2 Bft)
29/11/2008 09:00 6,8 C 84 % 998,5 hPa 0,0 l/m 6,7 km/h (2 Bft) O-NO 0,88 h 0,051 mm 202 W/m 4,2 C 5,6 C 9,6 km/h (2 Bft)
29/11/2008 10:00 9,6 C 74 % 998,7 hPa 0,0 l/m 5,0 km/h (1 Bft) O-SO 0,08 h 0,102 mm 136 W/m 5,2 C 9,1 C 7,4 km/h (2 Bft)
29/11/2008 11:00 9,3 C 76 % 998,7 hPa 0,0 l/m 3,4 km/h (1 Bft) NE 0,00 h 0,076 mm 60 W/m 5,2 C 9,1 C 5,0 km/h (1 Bft)
29/11/2008 12:00 8,2 C 80 % 998,6 hPa 0,0 l/m 2,2 km/h (1 Bft) N 0,00 h 0,051 mm 77 W/m 4,9 C 8,1 C 3,7 km/h (1 Bft)
29/11/2008 13:00 8,7 C 81 % 998,4 hPa 0,8 l/m 1,5 km/h (1 Bft) N-NE 0,00 h 0,051 mm 35 W/m 5,7 C 8,7 C 2,8 km/h (1 Bft)
29/11/2008 14:00 7,9 C 86 % 997,6 hPa 0,4 l/m 2,7 km/h (1 Bft) N 0,00 h 0,025 mm 34 W/m 5,7 C 7,8 C 4,9 km/h (1 Bft)
29/11/2008 15:00 7,5 C 89 % 996,8 hPa 0,6 l/m 2,6 km/h (1 Bft) N 0,00 h 0,025 mm 13 W/m 5,8 C 7,3 C 4,1 km/h (1 Bft)
29/11/2008 16:00 7,2 C 90 % 996,6 hPa 4,6 l/m 4,9 km/h (1 Bft) N 0,00 h 0,000 mm 0 W/m 5,7 C 6,6 C 8,3 km/h (2 Bft)
29/11/2008 17:00 7,3 C 92 % 996,3 hPa 8,4 l/m 5,6 km/h (1 Bft) N 0,00 h 0,000 mm 0 W/m 6,0 C 6,6 C 9,1 km/h (2 Bft)
29/11/2008 18:00 7,3 C 93 % 996,0 hPa 3,2 l/m 4,9 km/h (1 Bft) N 0,00 h 0,025 mm 0 W/m 6,2 C 6,7 C 8,4 km/h (2 Bft)
29/11/2008 19:00 7,6 C 93 % 994,5 hPa 7,2 l/m 9,7 km/h (2 Bft) N-NE 0,00 h 0,000 mm 0 W/m 6,6 C 5,9 C 15,6 km/h (3 Bft)
29/11/2008 20:00 8,0 C 95 % 993,9 hPa 3,0 l/m 11,2 km/h (2 Bft) E-NE 0,00 h 0,025 mm 0 W/m 7,2 C 6,2 C 16,2 km/h (3 Bft)
29/11/2008 21:00 9,1 C 95 % 994,1 hPa 2,4 l/m 5,8 km/h (2 Bft) N-NO 0,00 h 0,025 mm 0 W/m 8,3 C 8,5 C 8,8 km/h (2 Bft)
29/11/2008 22:00 8,2 C 95 % 994,7 hPa 0,0 l/m 7,2 km/h (2 Bft) O 0,00 h 0,000 mm 0 W/m 7,5 C 7,2 C 9,0 km/h (2 Bft)
29/11/2008 23:00 7,5 C 95 % 995,3 hPa 0,0 l/m 5,8 km/h (2 Bft) O-SO 0,00 h 0,000 mm 0 W/m 6,7 C 6,7 C 7,5 km/h (2 Bft)
30/11/2008 00:00 6,8 C 95 % 996,4 hPa 0,2 l/m 2,3 km/h (1 Bft) O-NO 0,00 h 0,000 mm 0 W/m 6,1 C 6,6 C 3,4 km/h (1 Bft)
30/11/2008 01:00 6,2 C 95 % 996,3 hPa 0,0 l/m 5,9 km/h (2 Bft) O-NO 0,00 h 0,000 mm 0 W/m 5,5 C 5,2 C 8,5 km/h (2 Bft)
30/11/2008 02:00 5,8 C 95 % 996,6 hPa 0,0 l/m 7,4 km/h (2 Bft) O-NO 0,00 h 0,000 mm 0 W/m 5,1 C 4,3 C 10,0 km/h (2 Bft)
30/11/2008 03:00 5,4 C 95 % 996,8 hPa 0,0 l/m 5,1 km/h (1 Bft) O-NO 0,00 h 0,000 mm 0 W/m 4,7 C 4,5 C 7,6 km/h (2 Bft)
30/11/2008 04:00 5,4 C 94 % 996,7 hPa 0,0 l/m 8,8 km/h (2 Bft) O-NO 0,00 h 0,000 mm 0 W/m 4,6 C 3,4 C 12,0 km/h (2 Bft)
30/11/2008 05:00 6,3 C 92 % 997,1 hPa 0,4 l/m 7,3 km/h (2 Bft) O-NO 0,00 h 0,025 mm 0 W/m 5,0 C 4,9 C 9,7 km/h (2 Bft)
30/11/2008 06:00 5,8 C 90 % 997,8 hPa 1,4 l/m 6,8 km/h (2 Bft) N-NO 0,00 h 0,025 mm 5 W/m 4,3 C 4,5 C 9,5 km/h (2 Bft)
30/11/2008 07:00 5,7 C 91 % 998,1 hPa 0,0 l/m 4,2 km/h (1 Bft) NO 0,00 h 0,000 mm 6 W/m 4,3 C 5,2 C 6,2 km/h (2 Bft)
30/11/2008 08:00 5,7 C 91 % 998,6 hPa 0,0 l/m 3,5 km/h (1 Bft) NO 0,15 h 0,000 mm 42 W/m 4,3 C 5,2 C 4,5 km/h (1 Bft)
30/11/2008 09:00 6,4 C 91 % 999,1 hPa 0,2 l/m 4,7 km/h (1 Bft) O-NO 0,02 h 0,025 mm 35 W/m 5,0 C 5,6 C 6,7 km/h (2 Bft)
30/11/2008 10:00 6,0 C 91 % 999,7 hPa 0,0 l/m 6,7 km/h (2 Bft) S 0,00 h 0,025 mm 43 W/m 4,6 C 4,9 C 9,1 km/h (2 Bft)
30/11/2008 11:00 6,2 C 92 % 1000,2 hPa 0,0 l/m 3,9 km/h (1 Bft) NO 0,00 h 0,025 mm 38 W/m 4,9 C 5,8 C 6,3 km/h (2 Bft)
30/11/2008 12:00 6,8 C 92 % 999,9 hPa 0,4 l/m 2,7 km/h (1 Bft) E 0,00 h 0,025 mm 32 W/m 5,6 C 6,5 C 4,0 km/h (1 Bft)
30/11/2008 13:00 6,6 C 92 % 999,8 hPa 1,4 l/m 6,1 km/h (2 Bft) O-NO 0,00 h 0,025 mm 41 W/m 5,4 C 5,6 C 9,0 km/h (2 Bft)
30/11/2008 14:00 6,7 C 93 % 999,5 hPa 0,0 l/m 7,4 km/h (2 Bft) N-NO 0,00 h 0,025 mm 80 W/m 5,6 C 5,4 C 10,9 km/h (2 Bft)
30/11/2008 15:00 6,6 C 93 % 999,5 hPa 2,6 l/m 5,2 km/h (1 Bft) N-NO 0,00 h 0,051 mm 18 W/m 5,6 C 5,8 C 7,2 km/h (2 Bft)
30/11/2008 16:00 6,3 C 93 % 999,2 hPa 0,0 l/m 4,0 km/h (1 Bft) N 0,00 h 0,025 mm 15 W/m 5,3 C 5,8 C 6,3 km/h (2 Bft)
30/11/2008 17:00 6,1 C 94 % 999,0 hPa 0,0 l/m 1,4 km/h (1 Bft) NE 0,00 h 0,000 mm 0 W/m 5,2 C 6,1 C 2,3 km/h (1 Bft)
30/11/2008 18:00 6,1 C 94 % 998,8 hPa 1,8 l/m 3,2 km/h (1 Bft) N-NE 0,00 h 0,000 mm 0 W/m 5,2 C 5,9 C 5,1 km/h (1 Bft)
30/11/2008 19:00 6,1 C 95 % 997,8 hPa 1,6 l/m 5,2 km/h (1 Bft) N 0,00 h 0,000 mm 0 W/m 5,3 C 5,3 C 8,0 km/h (2 Bft)
30/11/2008 20:00 5,9 C 95 % 997,3 hPa 3,8 l/m 7,4 km/h (2 Bft) N 0,00 h 0,000 mm 0 W/m 5,1 C 4,4 C 12,2 km/h (2 Bft)
30/11/2008 21:00 5,9 C 95 % 996,6 hPa 6,2 l/m 9,2 km/h (2 Bft) N-NE 0,00 h 0,000 mm 0 W/m 5,1 C 3,9 C 15,1 km/h (3 Bft)
30/11/2008 22:00 5,2 C 95 % 995,5 hPa 4,6 l/m 8,7 km/h (2 Bft) N-NE 0,00 h 0,025 mm 0 W/m 4,5 C 3,4 C 14,4 km/h (3 Bft)
30/11/2008 23:00 4,6 C 96 % 993,9 hPa 3,2 l/m 5,9 km/h (2 Bft) N-NE 0,00 h 0,000 mm 0 W/m 4,0 C 3,5 C 9,8 km/h (2 Bft)
Min-Date _ 25/11/08 27/11/08 24/11/08 - 24/11/08 - - - - 27/11/08 24/11/08 24/11/08
_ Min-Heure 07:27 11:40 08:00 - 03:05 - - - - 08:50 01:08 03:06
Minimum _ 2,7 C 36 % 990,7 hPa - 0,0 km/h (0 Bft) - - - - -5,1 C -1,3 C 0,0 km/h (0 Bft)
Max-Date _ 26/11/08 30/11/08 27/11/08 29/11/08 27/11/08 - 24/11/08 26/11/08 27/11/08 29/11/08 26/11/08 28/11/08
_ Max-Heure 12:58 00:14 09:15 17:45 23:32 - 07:48 13:00 12:52 21:01 12:58 04:12
Maximum _ 12,8 C 100 % 1022,0 hPa 8,4 l/m 30,6 km/h
NE (5 Bft)
- 0,02 h 0,229 mm 496 W/m 8,6 C 12,8 C 45,1 km/h
N-NE (6 Bft)
Moyenne _ 6,6 C 78 % 1003,3 hPa #94,2 l/m 6,4 km/h (2 Bft) O-NO #25:57 h #7,779 mm 128 W/m 2,7 C 5,6 C 9,5 km/h (2 Bft)
Roquefort les pins